»·PEaware :: N805RJ KTSP-L65

N805RJ :: KTSP-L65

FLIGHT INFORMATION

Flight Status: Arrived
Operator: Privately registered:
United States
More flights under this callsign
Pilot: Rickie J. (22768)
Aircraft: CESSNA 172 SKYHAWK
(C172)
More flights by this aircraft type
Origin: KTSP Tehachapi Mun
United States
Destination: L65 Perris Valley
United States
More flights between these airports :: More routes between these airports
Route: KELEN V197 PDZ
File this flight plan on PilotEdge
Remarks:
Altitude:
(Current/Filed)
11,500ft
Speed:
(Current/Filed)
120kts
Departed: 02-Aug-20 07:56 AM
Arrived: 02-Aug-20 09:00 AM
Distance/Time
Traveled:
102nm/1:03
Distance/Time
To Go:
Arrived

Flight Plot

Page will automatically refresh every two minutes.

Flight plan parsing failed; only flown route is shown


Map Options




Map Legend


Flown Route
Filed Route
Departure Airport
Arrival Airport
Navaid (VOR, NDB)
Fix

Horizontal Profiles

Position Reports

Time Latitude Longitude Heading Altitude Ground
Speed
02-Aug-20 07:25 35.135259 -118.441246 336 4004ft 0kts
02-Aug-20 07:26 35.135259 -118.441246 336 4004ft 0kts
02-Aug-20 07:27 35.135259 -118.441246 336 4004ft 0kts
02-Aug-20 07:28 35.135259 -118.441246 336 4004ft 0kts
02-Aug-20 07:29 35.135259 -118.441246 336 4004ft 0kts
02-Aug-20 07:30 35.135259 -118.441246 336 4004ft 0kts
02-Aug-20 07:31 35.135259 -118.441246 336 4004ft 0kts
02-Aug-20 07:32 35.135259 -118.441246 336 4004ft 0kts
02-Aug-20 07:33 35.135259 -118.441246 336 4004ft 0kts
02-Aug-20 07:34 35.135259 -118.441246 336 4004ft 0kts
02-Aug-20 07:35 35.135259 -118.441246 336 4004ft 0kts
02-Aug-20 07:36 35.135259 -118.441246 336 4004ft 0kts
02-Aug-20 07:37 35.135259 -118.441246 336 4004ft 0kts
02-Aug-20 07:39 35.135259 -118.441246 336 4004ft 0kts
02-Aug-20 07:40 35.135259 -118.441246 336 4004ft 0kts
02-Aug-20 07:41 35.135259 -118.441246 336 4004ft 0kts
02-Aug-20 07:42 35.135259 -118.441246 336 4004ft 0kts
02-Aug-20 07:43 35.135259 -118.441246 336 4004ft 0kts
02-Aug-20 07:44 35.135259 -118.441246 336 4004ft 0kts
02-Aug-20 07:45 35.135259 -118.441246 336 4004ft 0kts
02-Aug-20 07:46 35.135259 -118.441246 336 4004ft 0kts
02-Aug-20 07:47 35.135259 -118.441246 336 4004ft 0kts
02-Aug-20 07:48 35.135307 -118.441256 2 4004ft 0kts
02-Aug-20 07:49 35.135384 -118.440683 123 4004ft 5kts
02-Aug-20 07:50 35.134234 -118.438639 124 4004ft 9kts
02-Aug-20 07:51 35.132585 -118.435725 124 4004ft 11kts
02-Aug-20 07:52 35.131377 -118.433859 78 4004ft 0kts
02-Aug-20 07:53 35.131377 -118.433860 78 4004ft 0kts
02-Aug-20 07:54 35.131452 -118.433776 7 4004ft 1kts
02-Aug-20 07:55 35.131671 -118.433899 11 4004ft 0kts
02-Aug-20 07:56 35.133937 -118.437401 305 4004ft 62kts
02-Aug-20 07:57 35.136510 -118.462620 219 4509ft 92kts
02-Aug-20 07:57 35.130065 -118.481627 281 5018ft 87kts
02-Aug-20 07:59 35.110126 -118.514973 241 4997ft 123kts
02-Aug-20 07:59 35.120319 -118.542917 313 5000ft 120kts
02-Aug-20 08:00 35.127687 -118.580546 271 5218ft 106kts
02-Aug-20 08:02 35.126655 -118.616519 268 6093ft 84kts
02-Aug-20 08:02 35.125552 -118.640799 268 6594ft 87kts
02-Aug-20 08:03 35.124191 -118.670045 267 7183ft 87kts
02-Aug-20 08:05 35.104220 -118.670057 129 7811ft 110kts
02-Aug-20 08:05 35.087263 -118.647678 140 8224ft 111kts
02-Aug-20 08:06 35.065310 -118.622675 142 8713ft 110kts
02-Aug-20 08:07 35.043213 -118.597861 142 9170ft 111kts
02-Aug-20 08:08 35.020286 -118.571709 139 9579ft 115kts
02-Aug-20 08:09 34.998152 -118.542793 138 9991ft 116kts
02-Aug-20 08:10 34.976113 -118.513821 138 10401ft 116kts
02-Aug-20 08:11 34.954210 -118.485044 138 10810ft 115kts
02-Aug-20 08:12 34.932472 -118.456506 138 11219ft 114kts
02-Aug-20 08:13 34.910221 -118.427343 138 11517ft 121kts
02-Aug-20 08:14 34.885339 -118.394772 137 11497ft 137kts
02-Aug-20 08:15 34.858748 -118.359928 137 11475ft 138kts
02-Aug-20 08:16 34.833476 -118.326885 137 11502ft 138kts
02-Aug-20 08:17 34.808336 -118.294032 137 11502ft 138kts
02-Aug-20 08:18 34.783219 -118.261240 137 11502ft 138kts
02-Aug-20 08:19 34.758188 -118.228588 137 11502ft 138kts
02-Aug-20 08:20 34.732494 -118.195108 137 11512ft 137kts
02-Aug-20 08:21 34.707839 -118.163002 137 11505ft 139kts
02-Aug-20 08:22 34.683473 -118.131213 137 11507ft 138kts
02-Aug-20 08:23 34.657844 -118.097877 137 11507ft 138kts
02-Aug-20 08:24 34.632503 -118.066468 154 11504ft 134kts
02-Aug-20 08:25 34.601375 -118.048893 162 11507ft 132kts
02-Aug-20 08:26 34.568649 -118.032090 163 11507ft 132kts
02-Aug-20 08:27 34.536920 -118.016062 163 11507ft 132kts
02-Aug-20 08:28 34.505502 -118.000256 163 11507ft 132kts
02-Aug-20 08:29 34.475711 -117.985287 163 11507ft 130kts
02-Aug-20 08:30 34.445664 -117.970214 163 11503ft 131kts
02-Aug-20 08:31 34.418328 -117.956505 162 11504ft 131kts
02-Aug-20 08:32 34.383546 -117.939075 162 11504ft 130kts
02-Aug-20 08:33 34.355055 -117.924810 162 11504ft 130kts
02-Aug-20 08:34 34.324285 -117.909393 167 11505ft 135kts
02-Aug-20 08:35 34.289244 -117.891912 167 11501ft 137kts
02-Aug-20 08:36 34.254042 -117.874334 167 11499ft 137kts
02-Aug-20 08:37 34.218644 -117.856672 167 11500ft 137kts
02-Aug-20 08:38 34.183325 -117.839068 167 11502ft 137kts
02-Aug-20 08:39 34.148103 -117.821528 167 11502ft 137kts
02-Aug-20 08:40 34.112697 -117.803912 166 11501ft 137kts
02-Aug-20 08:41 34.075431 -117.779203 135 10723ft 164kts
02-Aug-20 08:42 34.048229 -117.737942 129 9964ft 163kts
02-Aug-20 08:43 34.020854 -117.694290 128 9174ft 162kts
02-Aug-20 08:44 33.993797 -117.650872 127 8389ft 161kts
02-Aug-20 08:45 33.966809 -117.607553 126 7602ft 160kts
02-Aug-20 08:46 33.940209 -117.564908 125 6820ft 159kts
02-Aug-20 08:47 33.914532 -117.521926 119 6033ft 156kts
02-Aug-20 08:48 33.895031 -117.482457 120 5336ft 152kts
02-Aug-20 08:49 33.871013 -117.437975 125 4475ft 144kts
02-Aug-20 08:50 33.848192 -117.398218 123 3670ft 143kts
02-Aug-20 08:51 33.827994 -117.362790 122 3333ft 105kts
02-Aug-20 08:52 33.813548 -117.334107 121 3126ft 99kts
02-Aug-20 08:53 33.798888 -117.305371 121 2828ft 101kts
02-Aug-20 08:54 33.786923 -117.279962 117 2502ft 80kts
02-Aug-20 08:55 33.776574 -117.256124 118 2391ft 78kts
02-Aug-20 08:56 33.765705 -117.234076 149 2382ft 77kts
02-Aug-20 08:57 33.745995 -117.226557 166 2263ft 76kts
02-Aug-20 08:58 33.746890 -117.211823 329 1859ft 79kts
02-Aug-20 08:59 33.763262 -117.218512 348 1417ft 10kts
02-Aug-20 09:00 33.762705 -117.218689 167 1417ft 6kts
02-Aug-20 09:01 33.761412 -117.218619 6 1417ft 0kts
02-Aug-20 09:02 33.761461 -117.218579 52 1417ft 0kts
02-Aug-20 09:03 33.761461 -117.218579 52 1417ft 0kts
02-Aug-20 09:04 33.761461 -117.218579 52 1417ft 0kts
02-Aug-20 09:05 33.761461 -117.218579 52 1417ft 0kts
02-Aug-20 09:06 33.761461 -117.218579 52 1417ft 0kts

Navigation Log

Ident Type
Flight plan parsing failed, navigation log unavailable